createdAt,value
2022-08-24T00:03:48.620Z,10.13
2022-08-24T00:18:48.632Z,9.22
2022-08-24T00:33:49.140Z,9.42
2022-08-24T00:48:48.952Z,9.73
2022-08-24T01:03:49.444Z,9.87
2022-08-24T01:18:49.229Z,9.13
2022-08-24T01:33:49.025Z,9.43
2022-08-24T01:48:49.263Z,9.92
2022-08-24T02:03:51.869Z,9.48
2022-08-24T02:18:49.319Z,9.02
2022-08-24T02:33:48.816Z,9.68
2022-08-24T02:48:52.241Z,9.92
2022-08-24T03:03:48.815Z,9.42
2022-08-24T03:18:48.831Z,9.73
2022-08-24T03:33:49.234Z,9.79
2022-08-24T03:48:49.195Z,8.92
2022-08-24T04:03:48.523Z,8.61
2022-08-24T04:18:48.656Z,9.97
2022-08-24T04:33:48.742Z,9.43
2022-08-24T04:48:48.772Z,9.15
2022-08-24T05:03:49.261Z,10.38
2022-08-24T05:18:48.676Z,10.49
2022-08-24T05:33:48.918Z,10.48
2022-08-24T05:48:50.062Z,9.87
2022-08-24T06:03:48.709Z,9.61
2022-08-24T06:18:48.608Z,9.16
2022-08-24T06:33:48.844Z,9.17
2022-08-24T06:48:48.871Z,8.41
2022-08-24T07:03:48.716Z,7.72
2022-08-24T07:18:50.081Z,8.06
2022-08-24T07:33:48.501Z,7.18
2022-08-24T07:48:52.893Z,7.18
2022-08-24T08:03:50.012Z,7.08
2022-08-24T08:18:52.329Z,6.95
2022-08-24T08:33:48.490Z,6.88
2022-08-24T08:48:49.275Z,6.51
2022-08-24T09:03:48.607Z,6.99
2022-08-24T09:18:49.297Z,6.3
2022-08-24T09:33:49.027Z,7.37
2022-08-24T09:48:48.900Z,6.99
2022-08-24T10:03:48.658Z,5.56
2022-08-24T10:18:49.226Z,4.55
2022-08-24T10:33:48.889Z,4.23
2022-08-24T10:48:48.395Z,4.69
2022-08-24T11:03:48.926Z,5.63
2022-08-24T11:18:48.765Z,4.57
2022-08-24T11:33:49.522Z,4.79
2022-08-24T11:48:48.489Z,4.84
2022-08-24T12:03:52.409Z,5.1
2022-08-24T12:18:48.519Z,4.65
2022-08-24T12:33:49.030Z,5.11
2022-08-24T12:48:48.535Z,4.88
2022-08-24T13:03:48.909Z,4.98
2022-08-24T13:18:48.434Z,4.94
2022-08-24T13:33:48.883Z,5.31
2022-08-24T13:48:48.437Z,5.97
2022-08-24T14:03:48.990Z,5.17
2022-08-24T14:18:48.606Z,4.89
2022-08-24T14:33:48.608Z,4.55
2022-08-24T14:48:55.152Z,4.49
2022-08-24T15:03:49.090Z,4.39
2022-08-24T15:18:48.731Z,4.04
2022-08-24T15:33:48.976Z,3.97
2022-08-24T15:48:48.853Z,4.41
2022-08-24T16:03:48.854Z,4.14
2022-08-24T16:18:48.868Z,3.85
2022-08-24T16:33:48.986Z,4.4
2022-08-24T16:48:49.048Z,4.59
2022-08-24T17:03:49.240Z,5.8
2022-08-24T17:18:48.645Z,8.1
2022-08-24T17:33:49.117Z,6.21
2022-08-24T17:48:49.028Z,6.29
2022-08-24T18:03:49.053Z,6.23
2022-08-24T18:18:49.019Z,7.4
2022-08-24T18:33:48.961Z,6.36
2022-08-24T18:48:49.049Z,6.73
2022-08-24T19:03:48.769Z,7.06
2022-08-24T19:18:48.410Z,7.44
2022-08-24T19:33:49.759Z,6.85
2022-08-24T19:48:48.740Z,6.86
2022-08-24T20:03:48.893Z,7.67
2022-08-24T20:18:48.440Z,9.45
2022-08-24T20:33:49.253Z,16.22
2022-08-24T20:48:52.422Z,12.45
2022-08-24T21:03:48.494Z,13.53
2022-08-24T21:18:48.770Z,15.24
2022-08-24T21:33:49.037Z,17.22
2022-08-24T21:48:49.020Z,13.45
2022-08-24T22:03:48.909Z,12.05
2022-08-24T22:18:48.979Z,9.88
2022-08-24T22:33:49.338Z,10.19
2022-08-24T22:48:48.773Z,9.43
2022-08-24T23:03:49.766Z,9.86
2022-08-24T23:18:48.621Z,9.4
2022-08-24T23:33:48.482Z,9.41
2022-08-24T23:48:51.149Z,9.41
